sensor_id;sensor_type;location;lat;lon;timestamp;P1;durP1;ratioP1;P2;durP2;ratioP2
23155;SDS011;11746;50.876;4.246;2024-02-23T00:01:06;5.07;;;0.75;;
23155;SDS011;11746;50.876;4.246;2024-02-23T00:03:36;3.42;;;0.60;;
23155;SDS011;11746;50.876;4.246;2024-02-23T00:06:04;6.53;;;0.70;;
23155;SDS011;11746;50.876;4.246;2024-02-23T00:08:32;5.65;;;0.70;;
23155;SDS011;11746;50.876;4.246;2024-02-23T00:10:58;3.30;;;0.70;;
23155;SDS011;11746;50.876;4.246;2024-02-23T00:13:23;1.95;;;0.80;;
23155;SDS011;11746;50.876;4.246;2024-02-23T00:15:51;4.03;;;0.70;;
23155;SDS011;11746;50.876;4.246;2024-02-23T00:18:19;3.88;;;0.70;;
23155;SDS011;11746;50.876;4.246;2024-02-23T00:20:46;2.85;;;0.52;;
23155;SDS011;11746;50.876;4.246;2024-02-23T00:23:12;4.15;;;0.80;;
23155;SDS011;11746;50.876;4.246;2024-02-23T00:25:40;5.78;;;0.80;;
23155;SDS011;11746;50.876;4.246;2024-02-23T00:28:06;3.95;;;0.80;;
23155;SDS011;11746;50.876;4.246;2024-02-23T00:30:36;3.45;;;0.80;;
23155;SDS011;11746;50.876;4.246;2024-02-23T00:33:02;2.53;;;0.70;;
23155;SDS011;11746;50.876;4.246;2024-02-23T00:35:30;4.82;;;0.50;;
23155;SDS011;11746;50.876;4.246;2024-02-23T00:37:56;2.38;;;0.57;;
23155;SDS011;11746;50.876;4.246;2024-02-23T00:40:24;3.53;;;0.50;;
23155;SDS011;11746;50.876;4.246;2024-02-23T00:42:50;2.90;;;0.50;;
23155;SDS011;11746;50.876;4.246;2024-02-23T00:45:15;2.28;;;0.73;;
23155;SDS011;11746;50.876;4.246;2024-02-23T00:47:43;1.58;;;0.45;;
23155;SDS011;11746;50.876;4.246;2024-02-23T00:50:11;5.40;;;0.65;;
23155;SDS011;11746;50.876;4.246;2024-02-23T00:52:36;2.63;;;0.43;;
23155;SDS011;11746;50.876;4.246;2024-02-23T00:55:02;5.70;;;0.60;;
23155;SDS011;11746;50.876;4.246;2024-02-23T00:57:30;2.63;;;0.52;;
23155;SDS011;11746;50.876;4.246;2024-02-23T00:59:56;4.00;;;0.85;;
23155;SDS011;11746;50.876;4.246;2024-02-23T01:02:22;3.80;;;0.52;;
23155;SDS011;11746;50.876;4.246;2024-02-23T01:04:52;2.42;;;0.55;;
23155;SDS011;11746;50.876;4.246;2024-02-23T01:07:22;5.80;;;0.82;;
23155;SDS011;11746;50.876;4.246;2024-02-23T01:09:48;4.57;;;0.80;;
23155;SDS011;11746;50.876;4.246;2024-02-23T01:12:13;1.98;;;0.50;;
23155;SDS011;11746;50.876;4.246;2024-02-23T01:14:41;4.72;;;0.60;;
23155;SDS011;11746;50.876;4.246;2024-02-23T01:17:07;4.03;;;0.60;;
23155;SDS011;11746;50.876;4.246;2024-02-23T01:19:35;3.13;;;0.50;;
23155;SDS011;11746;50.876;4.246;2024-02-23T01:22:01;3.50;;;0.80;;
23155;SDS011;11746;50.876;4.246;2024-02-23T01:24:27;3.90;;;0.73;;
23155;SDS011;11746;50.876;4.246;2024-02-23T01:27:00;3.13;;;0.73;;
23155;SDS011;11746;50.876;4.246;2024-02-23T01:29:28;2.35;;;0.50;;
23155;SDS011;11746;50.876;4.246;2024-02-23T01:31:54;3.88;;;0.70;;
23155;SDS011;11746;50.876;4.246;2024-02-23T01:34:22;2.35;;;0.60;;
23155;SDS011;11746;50.876;4.246;2024-02-23T01:36:48;5.80;;;0.82;;
23155;SDS011;11746;50.876;4.246;2024-02-23T01:39:16;3.90;;;0.93;;
23155;SDS011;11746;50.876;4.246;2024-02-23T01:41:43;4.68;;;0.63;;
23155;SDS011;11746;50.876;4.246;2024-02-23T01:44:11;2.28;;;0.52;;
23155;SDS011;11746;50.876;4.246;2024-02-23T01:46:37;3.97;;;0.70;;
23155;SDS011;11746;50.876;4.246;2024-02-23T01:49:07;4.65;;;0.60;;
23155;SDS011;11746;50.876;4.246;2024-02-23T01:51:36;1.75;;;0.50;;
23155;SDS011;11746;50.876;4.246;2024-02-23T01:54:02;2.50;;;0.70;;
23155;SDS011;11746;50.876;4.246;2024-02-23T01:56:36;2.88;;;0.80;;
23155;SDS011;11746;50.876;4.246;2024-02-23T01:59:05;7.97;;;1.05;;
23155;SDS011;11746;50.876;4.246;2024-02-23T02:01:31;3.45;;;0.73;;
23155;SDS011;11746;50.876;4.246;2024-02-23T02:03:58;2.45;;;0.70;;
23155;SDS011;11746;50.876;4.246;2024-02-23T02:06:24;4.63;;;1.08;;
23155;SDS011;11746;50.876;4.246;2024-02-23T02:08:49;3.40;;;0.88;;
23155;SDS011;11746;50.876;4.246;2024-02-23T02:11:15;4.20;;;0.85;;
23155;SDS011;11746;50.876;4.246;2024-02-23T02:13:41;4.68;;;0.90;;
23155;SDS011;11746;50.876;4.246;2024-02-23T02:16:06;7.35;;;1.00;;
23155;SDS011;11746;50.876;4.246;2024-02-23T02:18:32;6.90;;;1.05;;
23155;SDS011;11746;50.876;4.246;2024-02-23T02:20:58;5.38;;;1.20;;
23155;SDS011;11746;50.876;4.246;2024-02-23T02:23:24;5.38;;;1.00;;
23155;SDS011;11746;50.876;4.246;2024-02-23T02:25:54;6.28;;;1.10;;
23155;SDS011;11746;50.876;4.246;2024-02-23T02:28:21;4.30;;;1.20;;
23155;SDS011;11746;50.876;4.246;2024-02-23T02:30:50;5.25;;;1.05;;
23155;SDS011;11746;50.876;4.246;2024-02-23T02:33:20;8.73;;;1.48;;
23155;SDS011;11746;50.876;4.246;2024-02-23T02:35:49;7.75;;;1.42;;
23155;SDS011;11746;50.876;4.246;2024-02-23T02:38:17;5.10;;;1.23;;
23155;SDS011;11746;50.876;4.246;2024-02-23T02:40:45;5.22;;;1.05;;
23155;SDS011;11746;50.876;4.246;2024-02-23T02:43:13;7.05;;;1.33;;
23155;SDS011;11746;50.876;4.246;2024-02-23T02:45:38;5.70;;;0.90;;
23155;SDS011;11746;50.876;4.246;2024-02-23T02:48:06;8.90;;;1.58;;
23155;SDS011;11746;50.876;4.246;2024-02-23T02:50:32;5.35;;;1.30;;
23155;SDS011;11746;50.876;4.246;2024-02-23T02:53:00;11.55;;;2.17;;
23155;SDS011;11746;50.876;4.246;2024-02-23T02:55:26;4.75;;;1.05;;
23155;SDS011;11746;50.876;4.246;2024-02-23T02:57:56;5.13;;;1.10;;
23155;SDS011;11746;50.876;4.246;2024-02-23T03:00:21;3.33;;;0.82;;
23155;SDS011;11746;50.876;4.246;2024-02-23T03:02:50;4.63;;;1.42;;
23155;SDS011;11746;50.876;4.246;2024-02-23T03:05:15;5.85;;;0.90;;
23155;SDS011;11746;50.876;4.246;2024-02-23T03:07:46;3.80;;;1.10;;
23155;SDS011;11746;50.876;4.246;2024-02-23T03:10:13;4.80;;;0.75;;
23155;SDS011;11746;50.876;4.246;2024-02-23T03:12:39;5.82;;;1.20;;
23155;SDS011;11746;50.876;4.246;2024-02-23T03:15:05;2.63;;;0.63;;
23155;SDS011;11746;50.876;4.246;2024-02-23T03:17:33;7.45;;;1.13;;
23155;SDS011;11746;50.876;4.246;2024-02-23T03:19:59;7.05;;;1.02;;
23155;SDS011;11746;50.876;4.246;2024-02-23T03:22:25;5.18;;;0.80;;
23155;SDS011;11746;50.876;4.246;2024-02-23T03:24:50;11.63;;;1.88;;
23155;SDS011;11746;50.876;4.246;2024-02-23T03:27:16;4.88;;;1.00;;
23155;SDS011;11746;50.876;4.246;2024-02-23T03:29:44;8.45;;;1.10;;
23155;SDS011;11746;50.876;4.246;2024-02-23T03:32:12;5.22;;;1.20;;
23155;SDS011;11746;50.876;4.246;2024-02-23T03:34:40;4.25;;;1.20;;
23155;SDS011;11746;50.876;4.246;2024-02-23T03:37:11;2.20;;;0.68;;
23155;SDS011;11746;50.876;4.246;2024-02-23T03:39:37;5.30;;;1.02;;
23155;SDS011;11746;50.876;4.246;2024-02-23T03:42:03;3.08;;;0.88;;
23155;SDS011;11746;50.876;4.246;2024-02-23T03:44:31;5.55;;;1.13;;
23155;SDS011;11746;50.876;4.246;2024-02-23T03:46:58;8.13;;;1.48;;
23155;SDS011;11746;50.876;4.246;2024-02-23T03:49:26;3.95;;;1.33;;
23155;SDS011;11746;50.876;4.246;2024-02-23T03:51:52;6.95;;;1.00;;
23155;SDS011;11746;50.876;4.246;2024-02-23T03:54:17;5.55;;;0.90;;
23155;SDS011;11746;50.876;4.246;2024-02-23T03:56:45;7.88;;;1.25;;
23155;SDS011;11746;50.876;4.246;2024-02-23T03:59:11;3.72;;;0.90;;
23155;SDS011;11746;50.876;4.246;2024-02-23T04:01:39;7.18;;;1.00;;
23155;SDS011;11746;50.876;4.246;2024-02-23T04:04:07;7.68;;;1.25;;
23155;SDS011;11746;50.876;4.246;2024-02-23T04:06:36;4.68;;;0.90;;
23155;SDS011;11746;50.876;4.246;2024-02-23T04:09:04;7.88;;;1.30;;
23155;SDS011;11746;50.876;4.246;2024-02-23T04:11:30;5.97;;;1.17;;
23155;SDS011;11746;50.876;4.246;2024-02-23T04:13:56;5.20;;;1.00;;
23155;SDS011;11746;50.876;4.246;2024-02-23T04:16:22;7.40;;;1.25;;
23155;SDS011;11746;50.876;4.246;2024-02-23T04:18:49;6.68;;;0.98;;
23155;SDS011;11746;50.876;4.246;2024-02-23T04:21:15;3.60;;;0.85;;
23155;SDS011;11746;50.876;4.246;2024-02-23T04:23:41;5.68;;;1.10;;
23155;SDS011;11746;50.876;4.246;2024-02-23T04:26:10;5.90;;;1.42;;
23155;SDS011;11746;50.876;4.246;2024-02-23T04:28:41;7.45;;;0.90;;
23155;SDS011;11746;50.876;4.246;2024-02-23T04:31:10;5.53;;;1.25;;
23155;SDS011;11746;50.876;4.246;2024-02-23T04:33:36;6.70;;;1.10;;
23155;SDS011;11746;50.876;4.246;2024-02-23T04:36:04;4.13;;;0.90;;
23155;SDS011;11746;50.876;4.246;2024-02-23T04:38:32;4.72;;;0.95;;
23155;SDS011;11746;50.876;4.246;2024-02-23T04:41:02;5.32;;;1.00;;
23155;SDS011;11746;50.876;4.246;2024-02-23T04:43:29;3.53;;;1.20;;
23155;SDS011;11746;50.876;4.246;2024-02-23T04:45:54;5.07;;;1.20;;
23155;SDS011;11746;50.876;4.246;2024-02-23T04:48:23;5.97;;;1.23;;
23155;SDS011;11746;50.876;4.246;2024-02-23T04:50:51;5.30;;;0.80;;
23155;SDS011;11746;50.876;4.246;2024-02-23T04:53:16;6.68;;;1.48;;
23155;SDS011;11746;50.876;4.246;2024-02-23T04:55:42;5.88;;;0.98;;
23155;SDS011;11746;50.876;4.246;2024-02-23T04:58:10;8.43;;;0.90;;
23155;SDS011;11746;50.876;4.246;2024-02-23T05:00:37;8.52;;;1.50;;
23155;SDS011;11746;50.876;4.246;2024-02-23T05:03:03;3.08;;;0.77;;
23155;SDS011;11746;50.876;4.246;2024-02-23T05:05:29;7.15;;;1.00;;
23155;SDS011;11746;50.876;4.246;2024-02-23T05:07:57;7.90;;;1.20;;
23155;SDS011;11746;50.876;4.246;2024-02-23T05:10:24;8.05;;;1.15;;
23155;SDS011;11746;50.876;4.246;2024-02-23T05:12:50;5.07;;;1.10;;
23155;SDS011;11746;50.876;4.246;2024-02-23T05:15:15;5.05;;;0.90;;
23155;SDS011;11746;50.876;4.246;2024-02-23T05:17:41;3.58;;;1.08;;
23155;SDS011;11746;50.876;4.246;2024-02-23T05:20:07;5.05;;;0.95;;
23155;SDS011;11746;50.876;4.246;2024-02-23T05:22:35;4.43;;;1.08;;
23155;SDS011;11746;50.876;4.246;2024-02-23T05:25:08;3.72;;;1.25;;
23155;SDS011;11746;50.876;4.246;2024-02-23T05:27:34;9.98;;;1.52;;
23155;SDS011;11746;50.876;4.246;2024-02-23T05:30:02;9.75;;;1.05;;
23155;SDS011;11746;50.876;4.246;2024-02-23T05:32:31;6.10;;;1.25;;
23155;SDS011;11746;50.876;4.246;2024-02-23T05:34:57;7.05;;;1.05;;
23155;SDS011;11746;50.876;4.246;2024-02-23T05:37:22;5.25;;;1.25;;
23155;SDS011;11746;50.876;4.246;2024-02-23T05:39:52;6.05;;;1.20;;
23155;SDS011;11746;50.876;4.246;2024-02-23T05:42:21;8.20;;;1.02;;
23155;SDS011;11746;50.876;4.246;2024-02-23T05:44:46;2.92;;;0.75;;
23155;SDS011;11746;50.876;4.246;2024-02-23T05:47:16;7.65;;;1.00;;
23155;SDS011;11746;50.876;4.246;2024-02-23T05:49:41;6.28;;;1.20;;
23155;SDS011;11746;50.876;4.246;2024-02-23T05:52:07;6.30;;;1.40;;
23155;SDS011;11746;50.876;4.246;2024-02-23T05:54:33;3.80;;;0.90;;
23155;SDS011;11746;50.876;4.246;2024-02-23T05:57:01;4.32;;;1.08;;
23155;SDS011;11746;50.876;4.246;2024-02-23T05:59:27;7.18;;;1.40;;
23155;SDS011;11746;50.876;4.246;2024-02-23T06:01:53;7.18;;;1.48;;
23155;SDS011;11746;50.876;4.246;2024-02-23T06:04:22;6.82;;;1.80;;
23155;SDS011;11746;50.876;4.246;2024-02-23T06:06:50;6.50;;;1.63;;
23155;SDS011;11746;50.876;4.246;2024-02-23T06:09:18;8.70;;;1.77;;
23155;SDS011;11746;50.876;4.246;2024-02-23T06:11:44;8.88;;;1.75;;
23155;SDS011;11746;50.876;4.246;2024-02-23T06:14:15;10.40;;;1.92;;
23155;SDS011;11746;50.876;4.246;2024-02-23T06:16:40;7.13;;;1.73;;
23155;SDS011;11746;50.876;4.246;2024-02-23T06:19:06;13.30;;;2.17;;
23155;SDS011;11746;50.876;4.246;2024-02-23T06:21:31;10.45;;;1.90;;
23155;SDS011;11746;50.876;4.246;2024-02-23T06:23:59;7.03;;;2.05;;
23155;SDS011;11746;50.876;4.246;2024-02-23T06:26:25;6.65;;;2.05;;
23155;SDS011;11746;50.876;4.246;2024-02-23T06:28:53;7.35;;;2.20;;
23155;SDS011;11746;50.876;4.246;2024-02-23T06:31:18;8.13;;;2.28;;
23155;SDS011;11746;50.876;4.246;2024-02-23T06:33:46;13.57;;;2.00;;
23155;SDS011;11746;50.876;4.246;2024-02-23T06:36:19;5.05;;;2.25;;
23155;SDS011;11746;50.876;4.246;2024-02-23T06:38:47;5.38;;;1.98;;
23155;SDS011;11746;50.876;4.246;2024-02-23T06:41:12;8.82;;;2.22;;
23155;SDS011;11746;50.876;4.246;2024-02-23T06:43:38;9.65;;;2.05;;
23155;SDS011;11746;50.876;4.246;2024-02-23T06:46:06;9.57;;;2.45;;
23155;SDS011;11746;50.876;4.246;2024-02-23T06:48:35;5.38;;;1.75;;
23155;SDS011;11746;50.876;4.246;2024-02-23T06:51:04;7.45;;;2.00;;
23155;SDS011;11746;50.876;4.246;2024-02-23T06:53:30;6.47;;;2.05;;
23155;SDS011;11746;50.876;4.246;2024-02-23T06:55:56;7.88;;;1.92;;
23155;SDS011;11746;50.876;4.246;2024-02-23T06:58:24;9.32;;;1.92;;
23155;SDS011;11746;50.876;4.246;2024-02-23T07:00:52;15.13;;;2.83;;
23155;SDS011;11746;50.876;4.246;2024-02-23T07:03:19;6.85;;;2.42;;
23155;SDS011;11746;50.876;4.246;2024-02-23T07:05:47;7.35;;;2.10;;
23155;SDS011;11746;50.876;4.246;2024-02-23T07:08:17;6.22;;;1.90;;
23155;SDS011;11746;50.876;4.246;2024-02-23T07:10:45;12.40;;;2.03;;
23155;SDS011;11746;50.876;4.246;2024-02-23T07:13:15;8.15;;;1.98;;
23155;SDS011;11746;50.876;4.246;2024-02-23T07:15:42;9.02;;;2.47;;
23155;SDS011;11746;50.876;4.246;2024-02-23T07:18:08;8.90;;;2.45;;
23155;SDS011;11746;50.876;4.246;2024-02-23T07:20:34;11.27;;;2.05;;
23155;SDS011;11746;50.876;4.246;2024-02-23T07:23:03;14.75;;;2.17;;
23155;SDS011;11746;50.876;4.246;2024-02-23T07:25:32;8.02;;;1.70;;
23155;SDS011;11746;50.876;4.246;2024-02-23T07:27:59;7.07;;;2.13;;
23155;SDS011;11746;50.876;4.246;2024-02-23T07:30:27;9.95;;;1.88;;
23155;SDS011;11746;50.876;4.246;2024-02-23T07:32:53;8.30;;;2.00;;
23155;SDS011;11746;50.876;4.246;2024-02-23T07:35:18;10.95;;;1.80;;
23155;SDS011;11746;50.876;4.246;2024-02-23T07:37:44;9.48;;;1.92;;
23155;SDS011;11746;50.876;4.246;2024-02-23T07:40:10;12.75;;;2.05;;
23155;SDS011;11746;50.876;4.246;2024-02-23T07:42:38;7.10;;;2.00;;
23155;SDS011;11746;50.876;4.246;2024-02-23T07:45:04;8.50;;;2.03;;
23155;SDS011;11746;50.876;4.246;2024-02-23T07:47:31;7.25;;;1.98;;
23155;SDS011;11746;50.876;4.246;2024-02-23T07:49:57;11.20;;;2.10;;
23155;SDS011;11746;50.876;4.246;2024-02-23T07:52:25;9.95;;;1.55;;
23155;SDS011;11746;50.876;4.246;2024-02-23T07:54:53;6.63;;;1.63;;
23155;SDS011;11746;50.876;4.246;2024-02-23T07:57:19;5.57;;;1.88;;
23155;SDS011;11746;50.876;4.246;2024-02-23T07:59:48;8.77;;;1.90;;
23155;SDS011;11746;50.876;4.246;2024-02-23T08:02:14;9.43;;;1.70;;
23155;SDS011;11746;50.876;4.246;2024-02-23T08:04:45;8.85;;;2.00;;
23155;SDS011;11746;50.876;4.246;2024-02-23T08:07:15;9.00;;;1.95;;
23155;SDS011;11746;50.876;4.246;2024-02-23T08:09:43;10.00;;;2.05;;
23155;SDS011;11746;50.876;4.246;2024-02-23T08:12:09;9.43;;;1.92;;
23155;SDS011;11746;50.876;4.246;2024-02-23T08:14:36;9.60;;;2.28;;
23155;SDS011;11746;50.876;4.246;2024-02-23T08:17:04;10.55;;;2.10;;
23155;SDS011;11746;50.876;4.246;2024-02-23T08:19:29;9.88;;;2.60;;
23155;SDS011;11746;50.876;4.246;2024-02-23T08:21:55;8.40;;;2.33;;
23155;SDS011;11746;50.876;4.246;2024-02-23T08:24:22;10.23;;;2.20;;
23155;SDS011;11746;50.876;4.246;2024-02-23T08:26:47;13.70;;;2.45;;
23155;SDS011;11746;50.876;4.246;2024-02-23T08:29:16;4.20;;;1.83;;
23155;SDS011;11746;50.876;4.246;2024-02-23T08:31:43;9.63;;;1.73;;
23155;SDS011;11746;50.876;4.246;2024-02-23T08:34:11;6.50;;;2.00;;
23155;SDS011;11746;50.876;4.246;2024-02-23T08:36:39;11.00;;;2.15;;
23155;SDS011;11746;50.876;4.246;2024-02-23T08:39:05;6.07;;;2.22;;
23155;SDS011;11746;50.876;4.246;2024-02-23T08:41:31;10.32;;;2.40;;
23155;SDS011;11746;50.876;4.246;2024-02-23T08:43:56;10.75;;;2.50;;
23155;SDS011;11746;50.876;4.246;2024-02-23T08:46:24;9.52;;;2.20;;
23155;SDS011;11746;50.876;4.246;2024-02-23T08:48:50;7.10;;;2.17;;
23155;SDS011;11746;50.876;4.246;2024-02-23T08:51:16;9.68;;;2.17;;
23155;SDS011;11746;50.876;4.246;2024-02-23T08:53:41;8.95;;;2.22;;
23155;SDS011;11746;50.876;4.246;2024-02-23T08:56:09;4.43;;;1.52;;
23155;SDS011;11746;50.876;4.246;2024-02-23T08:58:36;10.02;;;2.42;;
23155;SDS011;11746;50.876;4.246;2024-02-23T09:01:04;5.50;;;1.77;;
23155;SDS011;11746;50.876;4.246;2024-02-23T09:03:30;9.00;;;2.10;;
23155;SDS011;11746;50.876;4.246;2024-02-23T09:05:56;6.25;;;2.08;;
23155;SDS011;11746;50.876;4.246;2024-02-23T09:08:25;7.47;;;1.73;;
23155;SDS011;11746;50.876;4.246;2024-02-23T09:10:50;9.60;;;2.38;;
23155;SDS011;11746;50.876;4.246;2024-02-23T09:13:16;8.77;;;2.10;;
23155;SDS011;11746;50.876;4.246;2024-02-23T09:15:44;4.95;;;1.42;;
23155;SDS011;11746;50.876;4.246;2024-02-23T09:18:12;8.40;;;1.80;;
23155;SDS011;11746;50.876;4.246;2024-02-23T09:20:37;7.68;;;1.50;;
23155;SDS011;11746;50.876;4.246;2024-02-23T09:23:05;8.27;;;1.52;;
23155;SDS011;11746;50.876;4.246;2024-02-23T09:25:36;6.60;;;1.33;;
23155;SDS011;11746;50.876;4.246;2024-02-23T09:28:02;5.93;;;1.27;;
23155;SDS011;11746;50.876;4.246;2024-02-23T09:30:28;7.32;;;1.25;;
23155;SDS011;11746;50.876;4.246;2024-02-23T09:32:56;4.38;;;1.30;;
23155;SDS011;11746;50.876;4.246;2024-02-23T09:35:21;8.30;;;1.38;;
23155;SDS011;11746;50.876;4.246;2024-02-23T09:37:51;3.53;;;1.20;;
23155;SDS011;11746;50.876;4.246;2024-02-23T09:40:19;6.90;;;1.88;;
23155;SDS011;11746;50.876;4.246;2024-02-23T09:42:48;6.22;;;0.85;;
23155;SDS011;11746;50.876;4.246;2024-02-23T09:45:20;7.63;;;1.15;;
23155;SDS011;11746;50.876;4.246;2024-02-23T09:47:48;7.15;;;1.23;;
23155;SDS011;11746;50.876;4.246;2024-02-23T09:50:17;6.05;;;1.10;;
23155;SDS011;11746;50.876;4.246;2024-02-23T09:52:46;5.43;;;1.23;;
23155;SDS011;11746;50.876;4.246;2024-02-23T09:55:12;5.40;;;1.25;;
23155;SDS011;11746;50.876;4.246;2024-02-23T09:57:40;5.28;;;0.90;;
23155;SDS011;11746;50.876;4.246;2024-02-23T10:00:11;3.58;;;0.90;;
23155;SDS011;11746;50.876;4.246;2024-02-23T10:02:37;4.80;;;1.02;;
23155;SDS011;11746;50.876;4.246;2024-02-23T10:05:05;5.95;;;0.85;;
23155;SDS011;11746;50.876;4.246;2024-02-23T10:07:35;9.73;;;1.35;;
23155;SDS011;11746;50.876;4.246;2024-02-23T10:10:01;5.90;;;0.93;;
23155;SDS011;11746;50.876;4.246;2024-02-23T10:12:26;7.97;;;1.15;;
23155;SDS011;11746;50.876;4.246;2024-02-23T10:14:52;5.85;;;1.05;;
23155;SDS011;11746;50.876;4.246;2024-02-23T10:17:20;6.40;;;1.23;;
23155;SDS011;11746;50.876;4.246;2024-02-23T10:19:48;5.68;;;1.17;;
23155;SDS011;11746;50.876;4.246;2024-02-23T10:22:16;4.13;;;0.98;;
23155;SDS011;11746;50.876;4.246;2024-02-23T10:24:42;5.82;;;1.10;;
23155;SDS011;11746;50.876;4.246;2024-02-23T10:27:11;6.28;;;1.00;;
23155;SDS011;11746;50.876;4.246;2024-02-23T10:29:37;6.07;;;1.50;;
23155;SDS011;11746;50.876;4.246;2024-02-23T10:32:05;6.28;;;1.63;;
23155;SDS011;11746;50.876;4.246;2024-02-23T10:34:31;4.63;;;1.17;;
23155;SDS011;11746;50.876;4.246;2024-02-23T10:37:02;6.22;;;1.17;;
23155;SDS011;11746;50.876;4.246;2024-02-23T10:39:31;5.60;;;1.38;;
23155;SDS011;11746;50.876;4.246;2024-02-23T10:42:03;6.28;;;0.90;;
23155;SDS011;11746;50.876;4.246;2024-02-23T10:44:30;6.97;;;1.33;;
23155;SDS011;11746;50.876;4.246;2024-02-23T10:46:57;4.85;;;0.95;;
23155;SDS011;11746;50.876;4.246;2024-02-23T10:49:28;6.63;;;1.02;;
23155;SDS011;11746;50.876;4.246;2024-02-23T10:51:54;4.82;;;1.10;;
23155;SDS011;11746;50.876;4.246;2024-02-23T10:54:23;3.80;;;0.80;;
23155;SDS011;11746;50.876;4.246;2024-02-23T10:56:52;5.07;;;0.90;;
23155;SDS011;11746;50.876;4.246;2024-02-23T10:59:20;4.95;;;0.98;;
23155;SDS011;11746;50.876;4.246;2024-02-23T11:01:47;6.07;;;1.10;;
23155;SDS011;11746;50.876;4.246;2024-02-23T11:04:15;6.45;;;0.98;;
23155;SDS011;11746;50.876;4.246;2024-02-23T11:06:42;5.05;;;0.85;;
23155;SDS011;11746;50.876;4.246;2024-02-23T11:09:08;6.53;;;1.42;;
23155;SDS011;11746;50.876;4.246;2024-02-23T11:11:38;7.88;;;1.45;;
23155;SDS011;11746;50.876;4.246;2024-02-23T11:14:07;7.00;;;1.38;;
23155;SDS011;11746;50.876;4.246;2024-02-23T11:16:34;6.22;;;1.27;;
23155;SDS011;11746;50.876;4.246;2024-02-23T11:19:08;4.03;;;1.17;;
23155;SDS011;11746;50.876;4.246;2024-02-23T11:21:43;3.10;;;0.82;;
23155;SDS011;11746;50.876;4.246;2024-02-23T11:24:17;7.13;;;1.38;;
23155;SDS011;11746;50.876;4.246;2024-02-23T11:26:43;5.95;;;0.90;;
23155;SDS011;11746;50.876;4.246;2024-02-23T11:29:11;5.57;;;0.85;;
23155;SDS011;11746;50.876;4.246;2024-02-23T11:31:46;5.10;;;1.20;;
23155;SDS011;11746;50.876;4.246;2024-02-23T11:34:12;3.03;;;0.93;;
23155;SDS011;11746;50.876;4.246;2024-02-23T11:36:38;3.33;;;0.90;;
23155;SDS011;11746;50.876;4.246;2024-02-23T11:39:09;4.35;;;0.80;;
23155;SDS011;11746;50.876;4.246;2024-02-23T11:41:37;7.28;;;1.33;;
23155;SDS011;11746;50.876;4.246;2024-02-23T11:44:04;3.80;;;1.20;;
23155;SDS011;11746;50.876;4.246;2024-02-23T11:46:32;4.38;;;1.38;;
23155;SDS011;11746;50.876;4.246;2024-02-23T11:48:57;3.50;;;1.25;;
23155;SDS011;11746;50.876;4.246;2024-02-23T11:51:24;5.15;;;0.90;;
23155;SDS011;11746;50.876;4.246;2024-02-23T11:53:54;4.35;;;0.88;;
23155;SDS011;11746;50.876;4.246;2024-02-23T11:56:23;4.40;;;1.00;;
23155;SDS011;11746;50.876;4.246;2024-02-23T11:58:49;6.40;;;1.15;;
23155;SDS011;11746;50.876;4.246;2024-02-23T12:01:18;4.03;;;0.90;;
23155;SDS011;11746;50.876;4.246;2024-02-23T12:03:44;11.85;;;1.27;;
23155;SDS011;11746;50.876;4.246;2024-02-23T12:06:10;6.35;;;0.82;;
23155;SDS011;11746;50.876;4.246;2024-02-23T12:08:36;5.32;;;0.90;;
23155;SDS011;11746;50.876;4.246;2024-02-23T12:11:05;5.25;;;0.70;;
23155;SDS011;11746;50.876;4.246;2024-02-23T12:13:36;4.85;;;0.80;;
23155;SDS011;11746;50.876;4.246;2024-02-23T12:16:02;7.30;;;1.30;;
23155;SDS011;11746;50.876;4.246;2024-02-23T12:18:32;4.25;;;1.00;;
23155;SDS011;11746;50.876;4.246;2024-02-23T12:20:59;7.38;;;1.90;;
23155;SDS011;11746;50.876;4.246;2024-02-23T12:23:40;3.10;;;1.00;;
23155;SDS011;11746;50.876;4.246;2024-02-23T12:26:13;4.50;;;1.13;;
23155;SDS011;11746;50.876;4.246;2024-02-23T12:28:42;6.55;;;1.25;;
23155;SDS011;11746;50.876;4.246;2024-02-23T12:31:09;6.40;;;0.65;;
23155;SDS011;11746;50.876;4.246;2024-02-23T12:33:35;3.85;;;0.90;;
23155;SDS011;11746;50.876;4.246;2024-02-23T12:36:12;5.22;;;0.70;;
23155;SDS011;11746;50.876;4.246;2024-02-23T12:38:40;3.63;;;1.02;;
23155;SDS011;11746;50.876;4.246;2024-02-23T12:41:06;3.20;;;0.90;;
23155;SDS011;11746;50.876;4.246;2024-02-23T12:43:35;4.88;;;0.90;;
23155;SDS011;11746;50.876;4.246;2024-02-23T12:46:01;3.05;;;0.63;;
23155;SDS011;11746;50.876;4.246;2024-02-23T12:48:28;2.70;;;0.90;;
23155;SDS011;11746;50.876;4.246;2024-02-23T12:50:54;3.80;;;0.80;;
23155;SDS011;11746;50.876;4.246;2024-02-23T12:56:05;10.23;;;1.52;;
23155;SDS011;11746;50.876;4.246;2024-02-23T12:58:33;5.43;;;1.27;;
23155;SDS011;11746;50.876;4.246;2024-02-23T13:01:11;3.40;;;0.90;;
23155;SDS011;11746;50.876;4.246;2024-02-23T13:03:37;4.80;;;0.80;;
23155;SDS011;11746;50.876;4.246;2024-02-23T13:06:05;4.18;;;0.95;;
23155;SDS011;11746;50.876;4.246;2024-02-23T13:08:32;7.55;;;1.00;;
23155;SDS011;11746;50.876;4.246;2024-02-23T13:11:00;3.85;;;1.13;;
23155;SDS011;11746;50.876;4.246;2024-02-23T13:13:26;7.90;;;1.50;;
23155;SDS011;11746;50.876;4.246;2024-02-23T13:15:53;6.53;;;1.58;;
23155;SDS011;11746;50.876;4.246;2024-02-23T13:18:21;5.70;;;1.20;;
23155;SDS011;11746;50.876;4.246;2024-02-23T13:20:47;3.55;;;0.90;;
23155;SDS011;11746;50.876;4.246;2024-02-23T13:23:13;2.92;;;0.82;;
23155;SDS011;11746;50.876;4.246;2024-02-23T13:25:40;5.53;;;1.13;;
23155;SDS011;11746;50.876;4.246;2024-02-23T13:28:07;4.40;;;0.88;;
23155;SDS011;11746;50.876;4.246;2024-02-23T13:30:33;4.85;;;0.73;;
23155;SDS011;11746;50.876;4.246;2024-02-23T13:33:02;4.68;;;1.02;;
23155;SDS011;11746;50.876;4.246;2024-02-23T13:35:28;2.40;;;1.00;;
23155;SDS011;11746;50.876;4.246;2024-02-23T13:37:56;6.30;;;1.20;;
23155;SDS011;11746;50.876;4.246;2024-02-23T13:40:24;6.00;;;1.02;;
23155;SDS011;11746;50.876;4.246;2024-02-23T13:42:52;4.82;;;0.90;;
23155;SDS011;11746;50.876;4.246;2024-02-23T13:45:20;4.63;;;0.80;;
23155;SDS011;11746;50.876;4.246;2024-02-23T13:47:59;2.75;;;1.02;;
23155;SDS011;11746;50.876;4.246;2024-02-23T13:50:26;6.30;;;1.02;;
23155;SDS011;11746;50.876;4.246;2024-02-23T13:52:52;5.95;;;1.33;;
23155;SDS011;11746;50.876;4.246;2024-02-23T13:55:18;4.03;;;0.85;;
23155;SDS011;11746;50.876;4.246;2024-02-23T13:57:47;6.13;;;1.17;;
23155;SDS011;11746;50.876;4.246;2024-02-23T14:00:14;3.75;;;0.82;;
23155;SDS011;11746;50.876;4.246;2024-02-23T14:02:40;4.53;;;1.27;;
23155;SDS011;11746;50.876;4.246;2024-02-23T14:05:06;2.63;;;1.20;;
23155;SDS011;11746;50.876;4.246;2024-02-23T14:07:35;3.92;;;0.73;;
23155;SDS011;11746;50.876;4.246;2024-02-23T14:10:03;5.03;;;1.13;;
23155;SDS011;11746;50.876;4.246;2024-02-23T14:12:29;3.08;;;0.77;;
23155;SDS011;11746;50.876;4.246;2024-02-23T14:14:55;3.78;;;0.90;;
23155;SDS011;11746;50.876;4.246;2024-02-23T14:17:23;2.95;;;0.90;;
23155;SDS011;11746;50.876;4.246;2024-02-23T14:19:49;5.32;;;0.82;;
23155;SDS011;11746;50.876;4.246;2024-02-23T14:22:15;8.15;;;0.90;;
23155;SDS011;11746;50.876;4.246;2024-02-23T14:24:44;6.22;;;1.48;;
23155;SDS011;11746;50.876;4.246;2024-02-23T14:27:10;5.43;;;0.75;;
23155;SDS011;11746;50.876;4.246;2024-02-23T14:29:35;3.97;;;0.60;;
23155;SDS011;11746;50.876;4.246;2024-02-23T14:32:03;3.53;;;0.90;;
23155;SDS011;11746;50.876;4.246;2024-02-23T14:34:31;3.30;;;1.10;;
23155;SDS011;11746;50.876;4.246;2024-02-23T14:36:58;7.00;;;1.00;;
23155;SDS011;11746;50.876;4.246;2024-02-23T14:39:24;3.95;;;0.85;;
23155;SDS011;11746;50.876;4.246;2024-02-23T14:41:50;4.78;;;1.02;;
23155;SDS011;11746;50.876;4.246;2024-02-23T14:44:18;1.92;;;0.85;;
23155;SDS011;11746;50.876;4.246;2024-02-23T14:46:46;5.15;;;1.20;;
23155;SDS011;11746;50.876;4.246;2024-02-23T14:49:11;4.78;;;1.00;;
23155;SDS011;11746;50.876;4.246;2024-02-23T14:51:39;1.90;;;0.80;;